KBAX

Huron County Memorial Airport

Bad Axe, Michigan, USA
METAR KBAX 092237Z AUTO 21004KT 10SM CLR M05/M07 A3024 RMK AO2 T10541070
Observed Flight Rules
Dec-9 @ 22:37 UTC (16 minutes ago) Visual Flight Rules
Wind Visibility Clouds
210° at 4 knots 10 miles
  • Clear skies
Temperatures Readings
Current -5°C / 23°F
Dewpoint -7°C / 19°F
Humidity 86%
Altimeter 30.24" Hg
Pressure 1024 hPa
Elevation 234
METAR KBAX 092237Z AUTO 21004KT 10SM CLR M05/M07 A3024 RMK AO2 T10541070
Observed Flight Rules
Dec-9 @ 22:37 UTC
(16 minutes ago)
VFR
Wind Visibility
210° at 4 knots 10 miles
Clouds
  • Clear skies
Temperature Dewpoint
-5°C / 23°F -7°C / 19°F
Humidity Altimeter Pressure
86% 30.24" Hg 1024 hPa